Time;durP1;ratioP1;P1;durP2;ratioP2;P2;SDS_P1;SDS_P2;PMS_P1;PMS_P2;Temp;Humidity;BMP_temperature;BMP_pressure;BME280_temperature;BME280_humidity;BME280_pressure;Samples;Min_cycle;Max_cycle;Signal;HPM_P1;HPM_P2
2021/11/04 00:00:07;;;;;;;13.27;1.92;;;;;;;22.27;54.55;99351.72;4920994;29;20501;-86
2021/11/04 00:02:38;;;;;;;7.00;2.42;;;;;;;22.16;55.04;99382.50;4937578;29;20118;-85
2021/11/04 00:05:05;;;;;;;11.15;3.13;;;;;;;22.20;55.33;99360.47;4920833;29;20031;-85
2021/11/04 00:07:34;;;;;;;13.13;2.15;;;;;;;22.24;55.29;99358.31;4920781;29;20091;-86
2021/11/04 00:10:04;;;;;;;11.43;2.90;;;;;;;22.15;55.85;99366.75;4920503;29;20031;-85
2021/11/04 00:12:35;;;;;;;8.00;2.72;;;;;;;22.10;56.25;99375.81;4920145;29;20095;-84
2021/11/04 00:15:03;;;;;;;11.70;4.07;;;;;;;22.13;56.58;99363.59;4919743;29;20463;-85
2021/11/04 00:17:32;;;;;;;8.07;2.38;;;;;;;21.90;57.83;99350.66;4937250;29;20027;-84
2021/11/04 00:20:00;;;;;;;12.00;2.55;;;;;;;21.97;58.11;99370.22;4920656;29;20474;-85
2021/11/04 00:22:26;;;;;;;12.73;2.35;;;;;;;21.91;58.79;99366.38;4920478;29;20039;-85
2021/11/04 00:24:52;;;;;;;12.93;3.17;;;;;;;21.79;59.54;99356.72;4920115;29;20086;-86
2021/11/04 00:27:23;;;;;;;9.68;3.20;;;;;;;21.75;60.29;99364.53;4921146;29;20036;-86
2021/11/04 00:29:51;;;;;;;15.60;3.22;;;;;;;21.75;60.54;99367.38;4919928;29;20031;-84
2021/11/04 00:32:20;;;;;;;12.48;3.28;;;;;;;21.66;61.55;99362.41;4920474;29;20035;-84
2021/11/04 00:34:45;;;;;;;10.07;3.22;;;;;;;21.60;62.06;99374.78;4936848;29;20064;-85
2021/11/04 00:37:14;;;;;;;13.30;3.58;;;;;;;21.60;62.29;99366.28;4920230;29;20094;-84
2021/11/04 00:39:43;;;;;;;21.73;3.60;;;;;;;21.56;62.71;99357.13;4920174;29;20087;-84
2021/11/04 00:42:08;;;;;;;18.38;3.42;;;;;;;21.55;63.32;99364.81;4937099;29;20171;-84
2021/11/04 00:44:37;;;;;;;20.67;3.70;;;;;;;21.56;63.51;99383.38;4936821;29;20106;-84
2021/11/04 00:47:06;;;;;;;15.38;3.55;;;;;;;21.42;64.16;99390.34;4920383;29;20042;-85
2021/11/04 00:49:32;;;;;;;18.73;4.00;;;;;;;21.44;64.59;99393.50;4920186;29;20705;-84
2021/11/04 00:51:58;;;;;;;13.73;3.03;;;;;;;21.39;65.19;99396.91;4919891;29;20027;-83
2021/11/04 00:54:29;;;;;;;15.60;5.22;;;;;;;21.22;66.34;99400.31;4919819;29;20035;-84
2021/11/04 00:56:54;;;;;;;15.90;3.72;;;;;;;21.17;66.58;99401.66;4937135;29;20110;-84
2021/11/04 00:59:26;;;;;;;12.10;3.10;;;;;;;21.18;67.22;99420.22;4919405;29;20052;-85
2021/11/04 01:01:54;;;;;;;15.88;4.55;;;;;;;20.89;67.85;99397.72;4919743;29;20031;-84
2021/11/04 01:04:25;;;;;;;11.48;4.40;;;;;;;21.01;68.90;99410.25;4919829;29;20389;-84
2021/11/04 01:06:54;;;;;;;19.95;4.72;;;;;;;20.87;69.57;99408.66;4920356;29;20036;-83
2021/11/04 01:09:22;;;;;;;19.25;3.45;;;;;;;20.87;70.07;99419.97;4936516;29;20032;-86
2021/11/04 01:11:53;;;;;;;15.02;3.47;;;;;;;20.83;70.39;99417.28;4936786;29;20118;-84
2021/11/04 01:14:22;;;;;;;17.10;3.90;;;;;;;20.69;71.01;99409.22;4919348;29;20028;-84
2021/11/04 01:16:50;;;;;;;11.63;3.97;;;;;;;20.73;71.65;99428.91;4919710;29;20474;-85
2021/11/04 01:19:21;;;;;;;17.13;4.15;;;;;;;20.56;72.02;99422.53;4921489;29;20041;-85
2021/11/04 01:21:53;;;;;;;17.90;3.63;;;;;;;20.63;72.15;99454.22;4921284;29;20031;-84
2021/11/04 01:24:23;;;;;;;15.85;3.10;;;;;;;20.38;72.58;99443.63;4919821;29;20481;-84
2021/11/04 01:26:52;;;;;;;8.48;2.20;;;;;;;20.23;72.33;99453.72;4919182;29;20035;-85
2021/11/04 01:29:20;;;;;;;11.50;2.53;;;;;;;20.02;73.06;99451.50;4919895;29;20036;-85
2021/11/04 01:31:46;;;;;;;9.65;2.65;;;;;;;19.76;73.94;99448.56;4919245;29;20028;-84
2021/11/04 01:34:11;;;;;;;8.40;2.53;;;;;;;19.61;74.07;99459.41;4919157;29;20130;-84
2021/11/04 01:36:40;;;;;;;5.95;1.80;;;;;;;19.53;74.13;99474.09;4919597;29;20070;-84
2021/11/04 01:39:08;;;;;;;7.68;2.22;;;;;;;19.24;74.47;99457.88;4919122;29;20470;-84
2021/11/04 01:41:36;;;;;;;7.28;2.10;;;;;;;19.30;74.52;99472.25;4919536;29;20378;-84
2021/11/04 01:44:02;;;;;;;6.10;1.83;;;;;;;19.19;73.88;99489.44;4936220;29;20398;-84
2021/11/04 01:46:27;;;;;;;8.05;2.10;;;;;;;19.21;73.05;99492.59;4919698;29;20032;-84
2021/11/04 01:48:56;;;;;;;3.47;1.48;;;;;;;19.18;74.18;99499.13;4919138;29;20521;-84
2021/11/04 01:51:22;;;;;;;7.75;2.08;;;;;;;19.05;75.14;99495.38;4919129;29;20032;-84
2021/11/04 01:53:47;;;;;;;7.93;1.92;;;;;;;18.98;75.80;99501.19;4919014;29;20125;-85
2021/11/04 01:56:18;;;;;;;6.32;2.05;;;;;;;18.87;77.41;99506.28;4919037;29;20038;-84
2021/11/04 01:58:44;;;;;;;6.85;2.65;;;;;;;18.82;78.66;99510.41;4936003;29;20051;-84
2021/11/04 02:01:10;;;;;;;7.72;2.80;;;;;;;18.72;79.24;99523.47;4919230;29;20598;-84
2021/11/04 02:03:44;;;;;;;8.95;2.63;;;;;;;18.70;79.92;99511.06;4919044;29;20039;-84
2021/11/04 02:06:48;;;;;;;15.90;2.72;;;;;;;18.58;80.97;99518.88;4919656;29;20032;-84
2021/11/04 02:09:19;;;;;;;10.00;2.97;;;;;;;18.45;81.66;99503.09;4919155;29;20031;-84
2021/11/04 02:12:04;;;;;;;7.93;2.53;;;;;;;18.40;82.63;99509.22;4936848;29;20032;-84
2021/11/04 02:14:37;;;;;;;13.73;3.75;;;;;;;18.41;82.69;99520.03;4936155;29;20032;-84
2021/11/04 02:17:04;;;;;;;8.80;2.28;;;;;;;18.42;83.10;99518.81;4935961;29;20032;-84
2021/11/04 02:20:03;;;;;;;9.57;2.72;;;;;;;18.38;83.99;99539.84;4918869;29;20031;-84
2021/11/04 02:22:29;;;;;;;11.65;3.25;;;;;;;18.36;84.52;99542.28;4877666;29;20050;-84
2021/11/04 02:25:15;;;;;;;11.77;3.13;;;;;;;18.32;84.91;99543.16;4919329;29;20390;-84
2021/11/04 02:27:48;;;;;;;13.27;3.50;;;;;;;18.22;86.07;99540.53;4919685;29;20376;-84
2021/11/04 02:30:20;;;;;;;7.18;2.95;;;;;;;18.19;86.74;99535.75;4918942;29;20030;-84
2021/11/04 02:32:49;;;;;;;10.63;3.65;;;;;;;18.19;86.85;99539.38;4918692;29;20028;-82
2021/11/04 02:35:15;;;;;;;11.07;2.95;;;;;;;18.16;87.58;99536.63;4935634;29;20027;-83
2021/11/04 02:37:44;;;;;;;8.05;3.00;;;;;;;18.11;87.62;99529.47;4920347;29;20039;-83
2021/11/04 02:40:10;;;;;;;12.02;2.78;;;;;;;18.11;87.71;99523.84;4922199;29;20172;-83
2021/11/04 02:42:38;;;;;;;11.32;2.40;;;;;;;18.13;87.58;99523.41;4921888;29;20067;-82
2021/11/04 02:45:05;;;;;;;12.52;2.80;;;;;;;18.08;87.81;99530.31;4939230;29;20042;-83
2021/11/04 02:47:31;;;;;;;11.70;2.97;;;;;;;17.92;88.26;99513.31;4939058;29;20031;-83
2021/11/04 02:50:00;;;;;;;14.13;3.72;;;;;;;18.00;88.35;99540.94;4921889;29;20360;-82
2021/11/04 02:52:28;;;;;;;10.38;2.92;;;;;;;18.08;88.22;99541.59;4939050;29;20038;-83
2021/11/04 02:55:03;;;;;;;9.20;2.67;;;;;;;18.05;87.72;99550.88;4939004;29;20039;-83
2021/11/04 02:57:29;;;;;;;10.82;3.13;;;;;;;18.09;87.58;99560.06;4922163;29;20435;-83
2021/11/04 02:59:56;;;;;;;11.25;2.58;;;;;;;18.19;86.62;99564.72;4921714;29;20091;-83
2021/11/04 03:02:21;;;;;;;9.77;3.10;;;;;;;18.23;86.09;99571.06;4939292;29;20107;-83
2021/11/04 03:04:50;;;;;;;8.93;2.80;;;;;;;18.18;86.08;99557.50;4922158;29;20032;-83
2021/11/04 03:07:16;;;;;;;8.10;1.90;;;;;;;18.11;86.30;99559.63;4938989;29;20051;-82
2021/11/04 03:09:48;;;;;;;8.70;2.55;;;;;;;18.07;86.13;99570.97;4939042;29;20482;-83
2021/11/04 03:12:14;;;;;;;5.07;2.22;;;;;;;18.10;85.23;99561.66;4921899;29;20441;-83
2021/11/04 03:14:40;;;;;;;12.00;5.45;;;;;;;18.03;84.82;99570.22;4921529;29;20028;-83
2021/11/04 03:17:06;;;;;;;6.40;2.42;;;;;;;18.00;83.42;99582.31;4922246;29;20035;-83
2021/11/04 03:19:32;;;;;;;7.03;2.47;;;;;;;17.97;83.15;99581.19;4921182;29;20024;-82
2021/11/04 03:21:58;;;;;;;5.75;3.15;;;;;;;17.91;82.45;99582.09;4921419;29;20036;-82
2021/11/04 03:24:26;;;;;;;16.38;9.48;;;;;;;17.97;81.50;99597.28;4921970;29;20034;-82
2021/11/04 03:27:11;;;;;;;6.25;3.38;;;;;;;18.04;77.49;99597.16;4921749;29;20035;-83
2021/11/04 03:29:40;;;;;;;5.53;2.10;;;;;;;18.05;75.98;99598.72;4921720;29;20036;-82
2021/11/04 03:32:13;;;;;;;3.83;1.55;;;;;;;18.06;73.19;99601.13;4938075;29;20163;-82
2021/11/04 03:34:40;;;;;;;4.80;1.25;;;;;;;18.00;70.47;99576.69;4921139;29;20490;-82
2021/11/04 03:37:11;;;;;;;1.27;0.60;;;;;;;18.19;66.35;99597.69;4920785;29;20036;-83
2021/11/04 03:39:39;;;;;;;1.27;0.80;;;;;;;18.24;66.48;99595.19;4937915;29;20370;-83
2021/11/04 03:42:09;;;;;;;2.17;0.90;;;;;;;18.40;66.37;99607.78;4920881;29;20036;-84
2021/11/04 03:44:37;;;;;;;2.58;1.38;;;;;;;18.39;66.64;99600.56;4921034;29;20046;-84
2021/11/04 03:47:07;;;;;;;1.67;0.90;;;;;;;18.15;67.14;99580.06;4920942;29;20119;-83
2021/11/04 03:49:36;;;;;;;3.13;0.85;;;;;;;18.43;67.43;99606.91;4937792;29;20024;-84
2021/11/04 03:52:05;;;;;;;1.88;1.15;;;;;;;18.48;67.44;99618.50;4920975;29;20032;-83
2021/11/04 03:54:31;;;;;;;2.60;1.15;;;;;;;18.35;67.92;99605.47;4938486;29;20027;-83
2021/11/04 03:56:58;;;;;;;3.72;1.13;;;;;;;18.29;68.22;99593.91;4920807;29;20489;-83
2021/11/04 03:59:24;;;;;;;3.00;1.10;;;;;;;18.28;68.13;99590.28;4920375;29;20143;-83
2021/11/04 04:01:51;;;;;;;5.38;1.25;;;;;;;18.42;67.95;99628.66;4920617;29;20024;-84
2021/11/04 04:04:17;;;;;;;4.60;1.40;;;;;;;18.33;68.77;99631.25;4920250;29;20036;-83
2021/11/04 04:07:03;;;;;;;3.47;1.52;;;;;;;18.24;69.00;99623.34;4920639;29;20086;-83
2021/11/04 04:09:31;;;;;;;3.17;1.15;;;;;;;18.32;67.74;99636.09;4920003;29;20073;-83
2021/11/04 04:12:02;;;;;;;4.32;1.73;;;;;;;18.31;67.99;99648.56;4920860;29;20031;-83
2021/11/04 04:14:31;;;;;;;4.22;1.20;;;;;;;18.31;68.02;99645.75;4920250;29;20079;-82
2021/11/04 04:16:59;;;;;;;4.90;0.90;;;;;;;18.28;68.03;99646.63;4920337;29;20087;-83
2021/11/04 04:19:24;;;;;;;2.38;1.77;;;;;;;18.29;67.96;99648.19;4920526;29;20034;-84
2021/11/04 04:21:56;;;;;;;2.85;1.15;;;;;;;18.31;68.04;99639.31;4920009;29;20368;-84
2021/11/04 04:24:27;;;;;;;5.03;1.10;;;;;;;18.30;68.57;99640.53;4920024;29;20035;-84
2021/11/04 04:26:55;;;;;;;3.88;1.00;;;;;;;18.27;68.84;99649.88;4920328;29;20478;-83
2021/11/04 04:29:24;;;;;;;5.57;1.42;;;;;;;18.26;68.84;99643.41;4920458;29;20467;-82
2021/11/04 04:31:49;;;;;;;4.45;1.67;;;;;;;18.25;69.45;99652.28;4920297;29;20035;-84
2021/11/04 04:34:15;;;;;;;5.35;1.27;;;;;;;18.16;69.74;99644.38;4937442;29;20364;-84
2021/11/04 04:36:40;;;;;;;3.88;1.35;;;;;;;18.17;70.27;99646.00;4920003;29;20028;-83
2021/11/04 04:39:06;;;;;;;9.57;1.20;;;;;;;18.06;70.70;99648.19;4920038;29;20072;-81
2021/11/04 04:41:35;;;;;;;2.38;1.02;;;;;;;18.07;70.91;99646.97;4920170;29;20115;-81
2021/11/04 04:44:03;;;;;;;3.90;1.77;;;;;;;18.13;71.01;99644.47;4920087;29;20072;-82
2021/11/04 04:46:32;;;;;;;5.15;1.80;;;;;;;18.08;71.05;99668.25;4920393;29;20434;-82
2021/11/04 04:49:01;;;;;;;2.85;1.02;;;;;;;18.06;71.04;99667.91;4920035;29;20450;-82
2021/11/04 04:51:29;;;;;;;3.70;1.23;;;;;;;18.15;69.98;99670.97;4920044;29;20455;-81
2021/11/04 04:53:54;;;;;;;4.95;0.80;;;;;;;18.13;69.65;99664.97;4919530;29;20040;-82
2021/11/04 04:56:22;;;;;;;3.72;1.20;;;;;;;17.95;70.31;99653.19;4920011;29;20150;-81
2021/11/04 04:58:51;;;;;;;2.90;0.95;;;;;;;17.95;70.23;99636.28;4919554;29;20051;-82
2021/11/04 05:01:16;;;;;;;5.22;1.08;;;;;;;18.12;69.59;99654.94;4936652;29;20106;-82
2021/11/04 05:03:45;;;;;;;3.08;0.93;;;;;;;17.99;69.72;99635.00;4919353;29;20078;-81
2021/11/04 05:06:13;;;;;;;0.75;0.60;;;;;;;17.93;70.40;99633.13;4919845;29;20031;-81
2021/11/04 05:08:42;;;;;;;4.18;0.80;;;;;;;17.86;70.76;99633.25;4936225;29;20106;-82
2021/11/04 05:11:08;;;;;;;3.20;1.05;;;;;;;17.87;71.11;99629.19;4919280;29;20052;-81
2021/11/04 05:13:37;;;;;;;3.03;1.08;;;;;;;17.98;71.07;99627.00;4919267;29;20059;-81
2021/11/04 05:16:02;;;;;;;5.10;1.02;;;;;;;17.87;71.81;99623.56;4936871;29;20114;-81
2021/11/04 05:18:34;;;;;;;4.03;1.23;;;;;;;17.83;71.95;99620.00;4919510;29;20071;-81
2021/11/04 05:20:59;;;;;;;4.60;1.05;;;;;;;17.82;72.38;99624.03;4919212;29;20553;-81
2021/11/04 05:23:25;;;;;;;3.13;0.98;;;;;;;17.78;72.80;99619.25;4919211;29;20127;-81
2021/11/04 05:25:51;;;;;;;2.05;0.85;;;;;;;17.75;73.21;99620.13;4937397;29;20031;-81
2021/11/04 05:28:20;;;;;;;5.18;1.10;;;;;;;17.74;73.17;99624.16;4919080;29;20382;-81
2021/11/04 05:30:51;;;;;;;4.15;1.08;;;;;;;17.67;73.14;99615.00;4936786;29;20079;-81
2021/11/04 05:33:21;;;;;;;1.85;0.63;;;;;;;17.58;73.73;99623.16;4919465;29;20105;-80
2021/11/04 05:35:53;;;;;;;1.55;0.77;;;;;;;17.59;73.42;99617.13;4919557;29;20051;-81
2021/11/04 05:38:24;;;;;;;5.53;1.00;;;;;;;17.61;73.78;99623.13;4919066;29;20027;-79
2021/11/04 05:40:53;;;;;;;1.88;0.80;;;;;;;17.61;73.46;99636.38;4919594;29;20036;-81
2021/11/04 05:43:21;;;;;;;4.00;1.10;;;;;;;17.65;73.50;99649.19;4919042;29;20036;-80
2021/11/04 05:45:46;;;;;;;2.30;0.80;;;;;;;17.61;73.85;99642.00;4919089;29;20070;-81
2021/11/04 05:48:17;;;;;;;3.58;1.00;;;;;;;17.56;74.10;99657.34;4919223;29;20067;-80
2021/11/04 05:50:43;;;;;;;4.43;0.95;;;;;;;17.60;74.08;99652.47;4936002;29;20510;-79
2021/11/04 05:53:09;;;;;;;5.03;1.10;;;;;;;17.55;74.43;99652.94;4919246;29;20143;-80
2021/11/04 05:55:37;;;;;;;2.80;1.08;;;;;;;17.59;74.35;99661.34;4919009;29;20382;-79
2021/11/04 05:58:02;;;;;;;5.40;1.17;;;;;;;17.56;74.11;99657.34;4918839;29;20055;-81
2021/11/04 06:00:28;;;;;;;1.55;0.80;;;;;;;17.58;74.27;99659.72;4919336;29;20095;-81
2021/11/04 06:02:59;;;;;;;4.13;1.30;;;;;;;17.54;74.83;99671.03;4918976;29;20394;-81
2021/11/04 06:05:25;;;;;;;4.53;1.50;;;;;;;17.56;74.20;99651.72;4919038;29;20031;-81
2021/11/04 06:07:53;;;;;;;4.60;1.30;;;;;;;17.63;74.34;99662.88;4919586;29;20039;-81
2021/11/04 06:10:19;;;;;;;3.40;1.35;;;;;;;17.53;74.96;99664.63;4936351;29;20561;-80
2021/11/04 06:12:50;;;;;;;1.25;0.90;;;;;;;17.50;75.45;99679.53;4922068;29;20040;-81
2021/11/04 06:15:18;;;;;;;3.70;0.90;;;;;;;17.60;75.46;99680.59;4939660;29;20030;-82
2021/11/04 06:17:44;;;;;;;5.00;1.20;;;;;;;17.52;75.71;99679.91;4922555;29;20134;-81
2021/11/04 06:20:12;;;;;;;6.40;0.93;;;;;;;17.50;75.79;99698.41;4922938;29;20163;-81
2021/11/04 06:22:38;;;;;;;4.53;1.55;;;;;;;17.43;76.24;99692.88;4939832;29;20043;-82
2021/11/04 06:25:04;;;;;;;1.88;1.00;;;;;;;17.29;77.08;99677.78;4922853;29;20106;-82
2021/11/04 06:27:30;;;;;;;4.45;1.20;;;;;;;17.40;77.72;99688.88;4939475;29;20159;-83
2021/11/04 06:29:58;;;;;;;3.13;1.00;;;;;;;17.37;77.62;99689.75;4922726;29;20460;-83
2021/11/04 06:32:27;;;;;;;7.20;1.55;;;;;;;17.35;78.69;99680.13;4921927;29;20032;-83
2021/11/04 06:34:55;;;;;;;3.55;1.00;;;;;;;17.49;78.58;99713.69;4921891;29;20040;-84
2021/11/04 06:37:23;;;;;;;4.93;1.25;;;;;;;17.52;79.46;99741.78;4922655;29;20392;-84
2021/11/04 06:39:49;;;;;;;2.75;1.70;;;;;;;17.55;80.02;99748.56;4939229;29;20099;-85
2021/11/04 06:42:18;;;;;;;3.90;1.60;;;;;;;17.55;80.25;99762.63;4921811;29;20474;-85
2021/11/04 06:44:43;;;;;;;6.78;1.70;;;;;;;17.44;80.93;99751.50;4922417;29;20028;-86
2021/11/04 06:47:29;;;;;;;7.32;2.97;;;;;;;17.46;81.51;99753.91;4921690;29;20545;-87
2021/11/04 06:49:57;;;;;;;7.88;1.80;;;;;;;17.53;81.95;99748.22;4922543;29;20356;-88
2021/11/04 06:52:33;;;;;;;7.53;2.00;;;;;;;17.50;82.58;99755.47;4921584;29;20043;-85
2021/11/04 06:55:03;;;;;;;6.40;1.50;;;;;;;17.48;82.50;99751.47;4921558;29;20036;-86
2021/11/04 06:57:30;;;;;;;6.03;1.50;;;;;;;17.45;83.26;99741.06;4920823;29;20035;-86
2021/11/04 06:59:59;;;;;;;4.80;1.30;;;;;;;17.37;82.90;99719.88;4937948;29;20028;-88
2021/11/04 07:02:36;;;;;;;5.68;1.52;;;;;;;17.53;82.31;99732.13;4920995;29;20043;-89
2021/11/04 07:05:07;;;;;;;3.22;1.25;;;;;;;17.58;82.54;99749.72;4938450;29;20107;-90
2021/11/04 07:07:44;;;;;;;5.10;1.88;;;;;;;17.74;82.15;99767.66;4922791;29;20038;-92
2021/11/04 07:10:14;;;;;;;6.18;1.42;;;;;;;17.70;81.57;99775.31;4939197;29;20031;-90
2021/11/04 07:12:45;;;;;;;7.72;1.55;;;;;;;17.63;81.80;99772.59;4922087;29;20126;-90
2021/11/04 07:15:13;;;;;;;8.35;1.42;;;;;;;17.68;81.72;99782.56;4938819;29;20107;-91
2021/11/04 07:17:41;;;;;;;5.82;1.40;;;;;;;17.71;81.72;99798.63;4939066;29;20099;-92
2021/11/04 07:20:17;;;;;;;4.50;1.65;;;;;;;17.63;81.68;99788.66;4939134;29;20092;-90
2021/11/04 07:22:53;;;;;;;4.13;3.05;;;;;;;17.58;81.82;99778.69;4921008;29;20036;-91
2021/11/04 07:25:24;;;;;;;3.58;1.42;;;;;;;17.67;82.14;99795.03;4921441;29;20084;-89
2021/11/04 07:28:16;;;;;;;6.00;1.83;;;;;;;17.73;82.29;99802.63;4922513;29;20089;-91
2021/11/04 07:30:45;;;;;;;3.80;1.17;;;;;;;17.64;82.55;99822.00;4950804;29;20039;-91
2021/11/04 07:33:15;;;;;;;3.03;1.27;;;;;;;17.70;82.32;99827.97;4923743;29;20032;-92
2021/11/04 07:35:42;;;;;;;5.20;2.20;;;;;;;17.68;81.46;99844.47;4906897;29;20146;-91
2021/11/04 07:38:10;;;;;;;6.68;1.33;;;;;;;17.50;80.09;99839.03;4922699;29;20027;-90
2021/11/04 07:40:36;;;;;;;6.07;2.17;;;;;;;17.61;79.24;99861.44;4906824;29;20040;-90
2021/11/04 07:43:08;;;;;;;7.18;1.45;;;;;;;17.61;79.77;99853.78;4921543;29;20032;-92
2021/11/04 07:45:37;;;;;;;4.57;1.50;;;;;;;17.52;78.95;99802.84;4922087;29;20123;-91
2021/11/04 07:48:03;;;;;;;6.47;1.80;;;;;;;17.51;79.11;99776.72;4921154;29;20175;-87
2021/11/04 07:50:31;;;;;;;3.28;1.25;;;;;;;17.60;78.07;99765.00;4904860;29;20138;-88
2021/11/04 07:52:57;;;;;;;4.32;1.58;;;;;;;17.72;77.20;99750.38;4921376;29;20102;-88
2021/11/04 07:55:23;;;;;;;4.18;1.55;;;;;;;17.87;75.36;99738.94;4938195;29;20055;-88
2021/11/04 07:57:49;;;;;;;5.18;2.80;;;;;;;17.98;74.52;99711.44;4921212;29;20150;-87
2021/11/04 08:00:21;;;;;;;4.22;2.53;;;;;;;17.93;73.60;99714.72;4920663;29;20028;-88
2021/11/04 08:02:50;;;;;;;3.97;1.63;;;;;;;18.02;73.22;99752.41;4938127;29;20040;-87
2021/11/04 08:05:17;;;;;;;5.35;1.50;;;;;;;18.07;73.54;99776.47;4937889;29;20028;-87
2021/11/04 08:07:46;;;;;;;3.08;1.00;;;;;;;17.89;73.37;99804.03;4920429;29;20118;-87
2021/11/04 08:10:14;;;;;;;2.78;1.00;;;;;;;17.79;73.92;99815.03;4920216;29;20107;-88
2021/11/04 08:12:40;;;;;;;4.47;2.22;;;;;;;17.74;73.31;99815.50;4921239;29;20142;-90
2021/11/04 08:15:10;;;;;;;1.45;1.27;;;;;;;17.71;72.00;99827.53;4920650;29;20415;-89
2021/11/04 08:17:36;;;;;;;4.50;1.00;;;;;;;17.62;70.61;99796.28;4938368;29;20438;-89
2021/11/04 08:20:04;;;;;;;2.88;0.73;;;;;;;17.71;69.86;99827.53;4920721;29;20114;-89
2021/11/04 08:22:29;;;;;;;1.90;0.88;;;;;;;17.83;69.30;99829.03;4920283;29;20031;-90
2021/11/04 08:24:57;;;;;;;7.43;1.17;;;;;;;17.93;70.36;99830.91;4920867;29;20114;-89
2021/11/04 08:27:23;;;;;;;2.83;0.95;;;;;;;18.02;71.45;99852.94;4920156;29;20091;-91
2021/11/04 08:29:51;;;;;;;1.92;1.20;;;;;;;17.92;72.24;99870.75;4920352;29;20426;-87
2021/11/04 08:32:19;;;;;;;4.40;1.23;;;;;;;17.94;73.31;99891.63;4920254;29;20028;-85
2021/11/04 08:34:48;;;;;;;3.83;1.25;;;;;;;17.92;73.73;99904.53;4936539;29;20102;-86
2021/11/04 08:37:13;;;;;;;4.13;1.08;;;;;;;17.78;74.16;99925.97;4937761;29;20111;-87
2021/11/04 08:39:39;;;;;;;5.30;1.20;;;;;;;17.72;74.50;99924.00;4920000;29;20059;-85
2021/11/04 08:42:08;;;;;;;3.03;1.15;;;;;;;17.78;74.82;99911.91;4920259;29;20126;-88
2021/11/04 08:44:34;;;;;;;3.30;1.30;;;;;;;17.79;75.20;99879.75;4920289;29;20123;-87
2021/11/04 08:47:01;;;;;;;5.35;1.40;;;;;;;17.89;75.56;99877.22;4919963;29;20477;-90
2021/11/04 08:49:27;;;;;;;2.40;1.35;;;;;;;17.91;75.85;99880.41;4921091;29;20452;-90
2021/11/04 08:51:54;;;;;;;9.73;1.85;;;;;;;18.07;76.07;99883.44;4920056;29;20036;-89
2021/11/04 08:54:28;;;;;;;2.63;1.35;;;;;;;18.18;75.75;99870.03;4936499;29;20020;-88
2021/11/04 08:56:56;;;;;;;2.95;1.20;;;;;;;18.19;75.35;99860.34;4936859;29;20027;-86
2021/11/04 08:59:22;;;;;;;5.07;1.75;;;;;;;18.24;74.62;99859.09;4919184;29;20132;-79
2021/11/04 09:01:50;;;;;;;5.18;2.40;;;;;;;18.09;74.76;99850.03;4919639;29;20032;-78
2021/11/04 09:04:19;;;;;;;7.70;2.78;;;;;;;18.04;75.25;99850.50;4936640;29;20442;-82
2021/11/04 09:06:51;;;;;;;7.18;2.15;;;;;;;18.04;76.06;99811.06;4920018;29;20091;-82
2021/11/04 09:09:22;;;;;;;4.53;1.45;;;;;;;18.21;75.38;99809.22;4936723;29;20069;-80
2021/11/04 09:11:51;;;;;;;5.45;1.40;;;;;;;18.37;75.48;99822.69;4919588;29;20031;-84
2021/11/04 09:14:20;;;;;;;3.75;1.45;;;;;;;18.60;75.34;99825.56;4919370;29;20474;-84
2021/11/04 09:16:45;;;;;;;5.65;1.38;;;;;;;18.71;74.77;99843.13;4919659;29;20035;-84
2021/11/04 09:19:11;;;;;;;2.70;1.25;;;;;;;18.97;74.59;99849.16;4919340;29;20360;-83
2021/11/04 09:21:40;;;;;;;7.60;1.20;;;;;;;19.05;73.95;99839.34;4919026;29;20486;-83
2021/11/04 09:24:07;;;;;;;6.00;1.83;;;;;;;18.99;73.61;99858.78;4935930;29;20028;-83
2021/11/04 09:26:36;;;;;;;3.42;1.60;;;;;;;18.96;73.86;99858.84;4936456;29;20099;-83
2021/11/04 09:29:05;;;;;;;4.57;1.00;;;;;;;18.99;74.07;99852.34;4919457;29;20034;-83
2021/11/04 09:31:34;;;;;;;6.03;1.20;;;;;;;19.03;73.97;99865.16;4918717;29;20036;-82
2021/11/04 09:34:03;;;;;;;2.88;1.20;;;;;;;18.91;74.45;99842.41;4935539;29;20592;-82
2021/11/04 09:36:29;;;;;;;3.63;1.15;;;;;;;18.81;75.11;99852.66;4919046;29;20032;-82
2021/11/04 09:38:59;;;;;;;5.00;1.58;;;;;;;18.67;75.27;99859.25;4918703;29;20028;-82
2021/11/04 09:41:26;;;;;;;6.32;1.55;;;;;;;18.62;75.39;99884.31;4918696;29;20043;-83
2021/11/04 09:43:57;;;;;;;3.50;1.20;;;;;;;18.49;76.00;99896.16;4918720;29;20027;-84
2021/11/04 09:46:24;;;;;;;2.22;1.25;;;;;;;18.51;77.07;99926.72;4937326;29;20039;-85
2021/11/04 09:48:51;;;;;;;7.20;1.52;;;;;;;18.26;77.40;99908.13;4939633;29;20035;-86
2021/11/04 09:51:21;;;;;;;3.20;1.30;;;;;;;18.00;78.51;99917.28;4939652;29;20020;-86
2021/11/04 09:53:50;;;;;;;7.93;1.23;;;;;;;17.93;79.33;99928.63;4939352;29;20086;-86
2021/11/04 09:56:21;;;;;;;4.22;1.42;;;;;;;18.04;80.23;99906.78;4922485;29;20074;-86
2021/11/04 09:58:50;;;;;;;4.25;1.30;;;;;;;18.06;80.24;99899.53;4922086;29;20052;-86
2021/11/04 10:01:25;;;;;;;8.02;1.50;;;;;;;18.16;80.44;99897.78;4922571;29;20035;-86
2021/11/04 10:03:58;;;;;;;5.18;4.50;;;;;;;18.26;80.26;99907.31;4939404;29;20497;-87
2021/11/04 10:06:23;;;;;;;5.15;1.65;;;;;;;18.11;80.33;99903.91;4922111;29;20032;-87
2021/11/04 10:08:55;;;;;;;8.60;2.05;;;;;;;18.16;80.49;99909.03;4922582;29;20062;-86
2021/11/04 10:11:26;;;;;;;3.90;1.40;;;;;;;18.10;80.35;99899.47;4939273;29;20039;-86
2021/11/04 10:14:03;;;;;;;3.05;1.38;;;;;;;18.00;80.34;99897.59;4923124;29;20344;-86
2021/11/04 10:16:34;;;;;;;2.10;1.10;;;;;;;17.98;80.73;99874.69;4922217;29;20038;-85
2021/11/04 10:19:07;;;;;;;5.68;1.13;;;;;;;17.95;80.23;99869.91;4922238;29;20174;-85
2021/11/04 10:21:40;;;;;;;4.00;1.83;;;;;;;18.01;79.53;99859.78;4922144;29;20035;-86
2021/11/04 10:24:28;;;;;;;3.97;1.20;;;;;;;18.00;80.37;99855.34;4922960;29;20344;-85
2021/11/04 10:26:55;;;;;;;2.72;1.25;;;;;;;18.10;80.43;99840.34;4939373;29;20053;-85
2021/11/04 10:29:25;;;;;;;2.38;1.20;;;;;;;18.18;79.54;99841.88;4939520;29;20027;-85
2021/11/04 10:31:58;;;;;;;6.10;1.98;;;;;;;18.05;79.61;99823.94;4922072;29;20478;-76
2021/11/04 10:34:25;;;;;;;2.50;1.60;;;;;;;18.15;79.64;99841.91;4921625;29;20031;-76
2021/11/04 10:36:52;;;;;;;8.02;1.95;;;;;;;18.12;79.69;99865.28;4922035;29;20034;-76
2021/11/04 10:39:17;;;;;;;7.43;1.58;;;;;;;18.04;80.36;99884.28;4922090;29;20339;-78
2021/11/04 10:41:46;;;;;;;4.88;2.42;;;;;;;18.05;80.42;99894.31;4921748;29;20024;-75
2021/11/04 10:44:16;;;;;;;2.55;1.70;;;;;;;17.79;81.00;99919.16;4922028;29;20038;-78
2021/11/04 10:46:50;;;;;;;3.05;1.80;;;;;;;17.64;82.71;99911.25;4922006;29;20123;-85
2021/11/04 10:49:21;;;;;;;2.55;1.60;;;;;;;17.51;83.81;99894.06;4921961;29;20042;-84
2021/11/04 10:51:57;;;;;;;3.45;1.45;;;;;;;17.41;84.26;99890.13;4921398;29;20023;-84
2021/11/04 10:54:23;;;;;;;3.75;1.77;;;;;;;17.33;84.74;99908.31;4939188;29;20036;-87
2021/11/04 10:56:52;;;;;;;6.30;1.88;;;;;;;17.34;85.31;99921.16;4922323;29;20038;-84
2021/11/04 10:59:20;;;;;;;3.45;1.90;;;;;;;17.20;85.61;99927.69;4920592;29;20213;-83
2021/11/04 11:01:50;;;;;;;5.88;1.98;;;;;;;17.15;86.07;99936.59;4938600;29;20063;-83
2021/11/04 11:04:34;;;;;;;6.47;4.28;;;;;;;17.18;85.42;99934.94;4921945;29;20058;-89
2021/11/04 11:07:00;;;;;;;11.40;6.07;;;;;;;17.10;85.88;99917.34;4921908;29;20042;-87
2021/11/04 11:09:31;;;;;;;3.17;1.83;;;;;;;16.88;85.25;99854.06;4922594;29;20094;-89
2021/11/04 11:12:04;;;;;;;5.47;2.42;;;;;;;17.00;85.60;99853.59;4941676;29;20414;-92
2021/11/04 11:14:38;;;;;;;5.10;3.22;;;;;;;16.93;85.59;99864.88;4947725;29;20043;-90
2021/11/04 11:17:11;;;;;;;6.10;2.60;;;;;;;16.83;87.11;99891.03;4925094;29;20035;-93
2021/11/04 11:19:43;;;;;;;6.35;2.42;;;;;;;16.95;87.04;99927.91;4939970;29;20493;-91
2021/11/04 11:22:09;;;;;;;3.33;1.95;;;;;;;16.62;87.60;99883.53;4923979;29;20035;-90
2021/11/04 11:24:38;;;;;;;4.70;2.03;;;;;;;16.90;88.16;99899.44;4923344;29;20488;-91
2021/11/04 11:27:09;;;;;;;3.80;1.38;;;;;;;16.60;86.31;99855.84;4939259;29;20032;-90
2021/11/04 11:29:42;;;;;;;4.32;2.30;;;;;;;16.53;87.65;99898.03;4936525;29;20032;-85
2021/11/04 11:34:46;;;;;;;4.35;2.25;;;;;;;16.44;90.31;99897.69;4996182;23;20063;-89
2021/11/04 11:37:19;;;;;;;3.20;1.83;;;;;;;16.36;90.01;99913.78;4940042;29;20114;-89
2021/11/04 11:39:50;;;;;;;3.65;1.70;;;;;;;16.38;89.90;99900.13;4939979;29;20459;-87
2021/11/04 11:42:18;;;;;;;3.83;1.77;;;;;;;16.42;89.66;99909.31;4941446;29;20101;-92